Zhoushuizi Airport
ZYTL : rendu visible

Aérodrome :











RETROUVEZ-NOUS SUR...

 
LOGIN :

S'inscrire | Disclaimer

   EN    FR    IT 

 









Légende :    VFR   VFR Marginal   IFR   IFR Intensif   IFR Très Intensif
Visi : 
Plafond : 
>= 8 km
>= 3000ft
5 à 8 km
1000 à 3000 ft
1500m à 5 km
500 à 1000 ft
800 à 1500m
200 à 500 ft
< 800m
< 200 ft
Symboles :   Orages  Brouillard  Fortes neiges  Fortes précipitations  Vent > 20 kt






- Altitude de l'aérodrome : 107 ft
- Code IATA : DLC


ZYTL - Zhoushuizi

DERNIER METAR :
  • 272200Z 34002MPS 290V010 2000 -SN BR SCT020 BKN033 M00/M01 Q1022 BECMG TL2230 1400 -SN BR

METARs EXPIRÉS :
  • 272130Z 35003MPS 2500 -SN BR SCT020 BKN033 00/M02 Q1022 NOSIG
  • 272100Z 33002MPS 2500 -SN BR SCT020 BKN033 01/M03 Q1022 BECMG TL2230 3000 -SN BR
  • 272030Z 33003MPS 3000 -SN BR SCT020 BKN033 01/M02 Q1022 NOSIG
  • 272000Z 34003MPS 300V020 3500 BR BKN033 01/M02 Q1022 NOSIG
  • 271930Z 34004MPS 290V360 6000 FEW020 BKN033 01/M01 Q1022 NOSIG

TAF TAF ZYTL
Valide du 27 à 18h jusqu'au 28 à 18h UTC


271512Z 2718/2818 36004MPS 3500 BR FEW026 BKN033 TX03/2806Z TNM02/2721Z
TEMPO 2718/2724 2000 -RASN SCT015 BKN030
TEMPO 2800/2806 2000 -SN



MET'MAP, la Météo Aéronautique d'un coup d'oeil ! - Copyright ORBIFLY Décembre 2007 - Disclaimer

ORBIFLY MET'MAP TEAM :

Programmation & Développement : Alexandra Zaïnal
Sur une idée originale de : Baudouin d'Aumeries
Assistance à la programmation : Marc-Olivier Méhu
Soutien technique & logistique : Manuel Goepfert

Contact : metmap@orbifly.com




SOURCES & CREDITS :

   NOAA       Earth
Advisory